sensor_id;sensor_type;location;lat;lon;timestamp;pressure;altitude;pressure_sealevel;temperature
63009;BMP280;49099;28.428;-16.488;2022-09-30T00:01:22;98843.47;;;24.02
63009;BMP280;49099;28.428;-16.488;2022-09-30T00:03:55;98843.25;;;23.89
63009;BMP280;49099;28.428;-16.488;2022-09-30T00:06:24;98835.53;;;23.63
63009;BMP280;49099;28.428;-16.488;2022-09-30T00:08:52;98845.59;;;23.41
63009;BMP280;49099;28.428;-16.488;2022-09-30T00:11:22;98836.06;;;23.40
63009;BMP280;49099;28.428;-16.488;2022-09-30T00:13:52;98835.09;;;23.43
63009;BMP280;49099;28.428;-16.488;2022-09-30T00:16:20;98829.50;;;23.41
63009;BMP280;49099;28.428;-16.488;2022-09-30T00:18:49;98821.19;;;23.39
63009;BMP280;49099;28.428;-16.488;2022-09-30T00:21:16;98834.13;;;23.35
63009;BMP280;49099;28.428;-16.488;2022-09-30T00:23:44;98826.09;;;23.29
63009;BMP280;49099;28.428;-16.488;2022-09-30T00:26:14;98828.78;;;23.24
63009;BMP280;49099;28.428;-16.488;2022-09-30T00:28:43;98826.84;;;23.19
63009;BMP280;49099;28.428;-16.488;2022-09-30T00:31:13;98821.47;;;23.13
63009;BMP280;49099;28.428;-16.488;2022-09-30T00:33:41;98820.50;;;23.11
63009;BMP280;49099;28.428;-16.488;2022-09-30T00:36:09;98819.53;;;23.14
63009;BMP280;49099;28.428;-16.488;2022-09-30T00:38:36;98820.50;;;23.22
63009;BMP280;49099;28.428;-16.488;2022-09-30T00:41:04;98825.34;;;23.29
63009;BMP280;49099;28.428;-16.488;2022-09-30T00:43:41;98811.69;;;23.38
63009;BMP280;49099;28.428;-16.488;2022-09-30T00:46:34;98809.75;;;23.44
63009;BMP280;49099;28.428;-16.488;2022-09-30T00:49:19;98814.38;;;23.49
63009;BMP280;49099;28.428;-16.488;2022-09-30T00:51:53;98804.59;;;23.51
63009;BMP280;49099;28.428;-16.488;2022-09-30T00:54:28;98807.78;;;23.50
63009;BMP280;49099;28.428;-16.488;2022-09-30T00:57:00;98799.50;;;23.48
63009;BMP280;49099;28.428;-16.488;2022-09-30T00:59:28;98797.56;;;23.43
63009;BMP280;49099;28.428;-16.488;2022-09-30T01:01:58;98798.53;;;23.40
63009;BMP280;49099;28.428;-16.488;2022-09-30T01:04:28;98797.81;;;23.39
63009;BMP280;49099;28.428;-16.488;2022-09-30T01:07:02;98792.94;;;23.38
63009;BMP280;49099;28.428;-16.488;2022-09-30T01:09:36;98787.59;;;23.38
63009;BMP280;49099;28.428;-16.488;2022-09-30T01:12:18;98786.81;;;23.43
63009;BMP280;49099;28.428;-16.488;2022-09-30T01:14:47;98795.59;;;23.49
63009;BMP280;49099;28.428;-16.488;2022-09-30T01:37:29;98765.06;;;23.68
63009;BMP280;49099;28.428;-16.488;2022-09-30T01:40:09;98754.31;;;23.68
63009;BMP280;49099;28.428;-16.488;2022-09-30T01:43:03;98757.78;;;23.63
63009;BMP280;49099;28.428;-16.488;2022-09-30T01:45:36;98753.88;;;23.64
63009;BMP280;49099;28.428;-16.488;2022-09-30T01:48:26;98742.84;;;23.68
63009;BMP280;49099;28.428;-16.488;2022-09-30T01:51:04;98743.84;;;23.70
63009;BMP280;49099;28.428;-16.488;2022-09-30T01:53:44;98746.25;;;23.74
63009;BMP280;49099;28.428;-16.488;2022-09-30T01:56:28;98741.38;;;23.72
63009;BMP280;49099;28.428;-16.488;2022-09-30T02:01:42;98741.47;;;23.56
63009;BMP280;49099;28.428;-16.488;2022-09-30T02:04:17;98747.59;;;23.40
63009;BMP280;49099;28.428;-16.488;2022-09-30T02:06:50;98745.19;;;23.31
63009;BMP280;49099;28.428;-16.488;2022-09-30T02:09:25;98737.41;;;23.27
63009;BMP280;49099;28.428;-16.488;2022-09-30T02:11:54;98731.53;;;23.29
63009;BMP280;49099;28.428;-16.488;2022-09-30T02:14:31;98720.81;;;23.29
63009;BMP280;49099;28.428;-16.488;2022-09-30T02:17:19;98728.63;;;23.32
63009;BMP280;49099;28.428;-16.488;2022-09-30T02:20:10;98717.91;;;23.32
63009;BMP280;49099;28.428;-16.488;2022-09-30T02:23:03;98708.63;;;23.33
63009;BMP280;49099;28.428;-16.488;2022-09-30T02:25:41;98708.63;;;23.33
63009;BMP280;49099;28.428;-16.488;2022-09-30T02:28:15;98703.53;;;23.30
63009;BMP280;49099;28.428;-16.488;2022-09-30T02:30:46;98696.22;;;23.25
63009;BMP280;49099;28.428;-16.488;2022-09-30T02:33:19;98695.03;;;23.20
63009;BMP280;49099;28.428;-16.488;2022-09-30T02:35:52;98688.94;;;23.20
63009;BMP280;49099;28.428;-16.488;2022-09-30T02:38:37;98681.13;;;23.22
63009;BMP280;49099;28.428;-16.488;2022-09-30T02:41:22;98675.78;;;23.22
63009;BMP280;49099;28.428;-16.488;2022-09-30T02:43:55;98672.63;;;23.18
63009;BMP280;49099;28.428;-16.488;2022-09-30T02:49:05;98665.56;;;23.15
63009;BMP280;49099;28.428;-16.488;2022-09-30T02:54:14;98668.25;;;23.09
63009;BMP280;49099;28.428;-16.488;2022-09-30T02:59:48;98667.06;;;23.05
63009;BMP280;49099;28.428;-16.488;2022-09-30T03:02:19;98664.13;;;23.08
63009;BMP280;49099;28.428;-16.488;2022-09-30T03:04:48;98668.97;;;23.10
63009;BMP280;49099;28.428;-16.488;2022-09-30T03:07:15;98670.47;;;23.16
63009;BMP280;49099;28.428;-16.488;2022-09-30T03:09:44;98670.41;;;23.22
63009;BMP280;49099;28.428;-16.488;2022-09-30T03:15:06;98661.13;;;23.28
63009;BMP280;49099;28.428;-16.488;2022-09-30T03:20:38;98660.88;;;23.32
63009;BMP280;49099;28.428;-16.488;2022-09-30T03:23:17;98654.28;;;23.33
63009;BMP280;49099;28.428;-16.488;2022-09-30T03:28:43;98656.22;;;23.38
63009;BMP280;49099;28.428;-16.488;2022-09-30T03:39:58;98647.41;;;23.48
63009;BMP280;49099;28.428;-16.488;2022-09-30T03:42:42;98645.44;;;23.49
63009;BMP280;49099;28.428;-16.488;2022-09-30T03:48:34;98652.09;;;23.37
63009;BMP280;49099;28.428;-16.488;2022-09-30T03:51:03;98648.41;;;23.40
63009;BMP280;49099;28.428;-16.488;2022-09-30T03:53:39;98647.41;;;23.43
63009;BMP280;49099;28.428;-16.488;2022-09-30T03:56:06;98651.81;;;23.46
63009;BMP280;49099;28.428;-16.488;2022-09-30T03:58:36;98645.97;;;23.42
63009;BMP280;49099;28.428;-16.488;2022-09-30T04:01:05;98642.31;;;23.45
63009;BMP280;49099;28.428;-16.488;2022-09-30T04:03:32;98645.00;;;23.45
63009;BMP280;49099;28.428;-16.488;2022-09-30T04:06:01;98644.50;;;23.46
63009;BMP280;49099;28.428;-16.488;2022-09-30T04:08:28;98645.44;;;23.49
63009;BMP280;49099;28.428;-16.488;2022-09-30T04:10:59;98639.38;;;23.48
63009;BMP280;49099;28.428;-16.488;2022-09-30T04:13:26;98637.16;;;23.47
63009;BMP280;49099;28.428;-16.488;2022-09-30T04:15:53;98633.50;;;23.50
63009;BMP280;49099;28.428;-16.488;2022-09-30T04:18:20;98636.91;;;23.50
63009;BMP280;49099;28.428;-16.488;2022-09-30T04:20:47;98635.19;;;23.53
63009;BMP280;49099;28.428;-16.488;2022-09-30T04:23:14;98628.13;;;23.55
63009;BMP280;49099;28.428;-16.488;2022-09-30T04:25:42;98628.84;;;23.56
63009;BMP280;49099;28.428;-16.488;2022-09-30T04:28:09;98634.19;;;23.56
63009;BMP280;49099;28.428;-16.488;2022-09-30T04:30:36;98627.59;;;23.57
63009;BMP280;49099;28.428;-16.488;2022-09-30T04:33:04;98624.94;;;23.57
63009;BMP280;49099;28.428;-16.488;2022-09-30T04:35:31;98627.59;;;23.57
63009;BMP280;49099;28.428;-16.488;2022-09-30T04:37:58;98622.50;;;23.59
63009;BMP280;49099;28.428;-16.488;2022-09-30T04:40:25;98622.25;;;23.57
63009;BMP280;49099;28.428;-16.488;2022-09-30T04:42:55;98622.25;;;23.57
63009;BMP280;49099;28.428;-16.488;2022-09-30T04:45:22;98624.94;;;23.57
63009;BMP280;49099;28.428;-16.488;2022-09-30T04:47:50;98619.56;;;23.57
63009;BMP280;49099;28.428;-16.488;2022-09-30T04:50:18;98616.91;;;23.51
63009;BMP280;49099;28.428;-16.488;2022-09-30T04:52:45;98608.91;;;23.46
63009;BMP280;49099;28.428;-16.488;2022-09-30T04:55:13;98613.81;;;23.42
63009;BMP280;49099;28.428;-16.488;2022-09-30T04:57:43;98616.47;;;23.42
63009;BMP280;49099;28.428;-16.488;2022-09-30T05:00:10;98620.63;;;23.43
63009;BMP280;49099;28.428;-16.488;2022-09-30T05:02:37;98615.03;;;23.41
63009;BMP280;49099;28.428;-16.488;2022-09-30T05:05:05;98606.53;;;23.37
63009;BMP280;49099;28.428;-16.488;2022-09-30T05:07:32;98600.94;;;23.29
63009;BMP280;49099;28.428;-16.488;2022-09-30T05:09:59;98592.94;;;23.24
63009;BMP280;49099;28.428;-16.488;2022-09-30T05:12:26;98587.63;;;23.13
63009;BMP280;49099;28.428;-16.488;2022-09-30T05:14:53;98589.13;;;23.03
63009;BMP280;49099;28.428;-16.488;2022-09-30T05:17:20;98588.44;;;22.91
63009;BMP280;49099;28.428;-16.488;2022-09-30T05:19:47;98605.50;;;22.83
63009;BMP280;49099;28.428;-16.488;2022-09-30T05:22:15;98604.75;;;22.88
63009;BMP280;49099;28.428;-16.488;2022-09-30T05:24:42;98616.69;;;22.92
63009;BMP280;49099;28.428;-16.488;2022-09-30T05:27:09;98620.78;;;22.99
63009;BMP280;49099;28.428;-16.488;2022-09-30T05:29:36;98622.72;;;23.04
63009;BMP280;49099;28.428;-16.488;2022-09-30T05:32:03;98630.03;;;23.09
63009;BMP280;49099;28.428;-16.488;2022-09-30T05:34:31;98634.16;;;23.15
63009;BMP280;49099;28.428;-16.488;2022-09-30T05:36:58;98641.88;;;23.24
63009;BMP280;49099;28.428;-16.488;2022-09-30T05:39:25;98634.59;;;23.25
63009;BMP280;49099;28.428;-16.488;2022-09-30T05:41:55;98641.66;;;23.28
63009;BMP280;49099;28.428;-16.488;2022-09-30T05:44:22;98649.94;;;23.30
63009;BMP280;49099;28.428;-16.488;2022-09-30T05:46:49;98652.59;;;23.24
63009;BMP280;49099;28.428;-16.488;2022-09-30T05:49:16;98659.47;;;23.20
63009;BMP280;49099;28.428;-16.488;2022-09-30T05:51:44;98656.53;;;23.18
63009;BMP280;49099;28.428;-16.488;2022-09-30T05:54:11;98651.44;;;23.20
63009;BMP280;49099;28.428;-16.488;2022-09-30T05:56:38;98655.81;;;23.23
63009;BMP280;49099;28.428;-16.488;2022-09-30T05:59:07;98657.72;;;23.28
63009;BMP280;49099;28.428;-16.488;2022-09-30T06:01:35;98665.50;;;23.31
63009;BMP280;49099;28.428;-16.488;2022-09-30T06:04:02;98654.53;;;23.35
63009;BMP280;49099;28.428;-16.488;2022-09-30T06:06:29;98647.94;;;23.36
63009;BMP280;49099;28.428;-16.488;2022-09-30T06:08:56;98650.41;;;23.34
63009;BMP280;49099;28.428;-16.488;2022-09-30T06:11:23;98659.19;;;23.29
63009;BMP280;49099;28.428;-16.488;2022-09-30T06:13:51;98659.19;;;23.29
63009;BMP280;49099;28.428;-16.488;2022-09-30T06:16:18;98665.53;;;23.26
63009;BMP280;49099;28.428;-16.488;2022-09-30T06:18:46;98672.09;;;23.25
63009;BMP280;49099;28.428;-16.488;2022-09-30T06:21:16;98674.78;;;23.25
63009;BMP280;49099;28.428;-16.488;2022-09-30T06:23:44;98677.00;;;23.21
63009;BMP280;49099;28.428;-16.488;2022-09-30T06:26:12;98677.28;;;23.12
63009;BMP280;49099;28.428;-16.488;2022-09-30T06:28:40;98653.16;;;23.06
63009;BMP280;49099;28.428;-16.488;2022-09-30T06:31:08;98653.44;;;22.92
63009;BMP280;49099;28.428;-16.488;2022-09-30T06:33:35;98656.13;;;22.81
63009;BMP280;49099;28.428;-16.488;2022-09-30T06:36:03;98653.00;;;22.66
63009;BMP280;49099;28.428;-16.488;2022-09-30T06:38:31;98654.00;;;22.52
63009;BMP280;49099;28.428;-16.488;2022-09-30T06:40:59;98647.19;;;22.39
63009;BMP280;49099;28.428;-16.488;2022-09-30T06:43:26;98651.56;;;22.31
63009;BMP280;49099;28.428;-16.488;2022-09-30T06:45:54;98654.00;;;22.29
63009;BMP280;49099;28.428;-16.488;2022-09-30T06:48:37;98657.63;;;22.32
63009;BMP280;49099;28.428;-16.488;2022-09-30T06:51:05;98660.81;;;22.30
63009;BMP280;49099;28.428;-16.488;2022-09-30T06:53:36;98662.75;;;22.30
63009;BMP280;49099;28.428;-16.488;2022-09-30T06:56:05;98660.31;;;22.32
63009;BMP280;49099;28.428;-16.488;2022-09-30T06:58:32;98662.75;;;22.35
63009;BMP280;49099;28.428;-16.488;2022-09-30T07:01:03;98659.59;;;22.42
63009;BMP280;49099;28.428;-16.488;2022-09-30T07:03:34;98655.94;;;22.45
63009;BMP280;49099;28.428;-16.488;2022-09-30T07:06:03;98651.81;;;22.50
63009;BMP280;49099;28.428;-16.488;2022-09-30T07:08:32;98643.28;;;22.52
63009;BMP280;49099;28.428;-16.488;2022-09-30T07:11:01;98646.69;;;22.58
63009;BMP280;49099;28.428;-16.488;2022-09-30T07:13:30;98652.03;;;22.58
63009;BMP280;49099;28.428;-16.488;2022-09-30T07:15:58;98652.28;;;22.60
63009;BMP280;49099;28.428;-16.488;2022-09-30T07:18:25;98659.13;;;22.61
63009;BMP280;49099;28.428;-16.488;2022-09-30T07:20:55;98654.47;;;22.61
63009;BMP280;49099;28.428;-16.488;2022-09-30T07:23:23;98657.63;;;22.60
63009;BMP280;49099;28.428;-16.488;2022-09-30T07:25:54;98653.50;;;22.59
63009;BMP280;49099;28.428;-16.488;2022-09-30T07:28:27;98656.19;;;22.59
63009;BMP280;49099;28.428;-16.488;2022-09-30T07:30:58;98661.03;;;22.66
63009;BMP280;49099;28.428;-16.488;2022-09-30T07:33:46;98663.94;;;22.79
63009;BMP280;49099;28.428;-16.488;2022-09-30T07:36:14;98668.53;;;22.89
63009;BMP280;49099;28.428;-16.488;2022-09-30T07:38:45;98666.84;;;22.97
63009;BMP280;49099;28.428;-16.488;2022-09-30T07:41:20;98661.44;;;23.08
63009;BMP280;49099;28.428;-16.488;2022-09-30T07:43:50;98664.09;;;23.14
63009;BMP280;49099;28.428;-16.488;2022-09-30T07:46:20;98668.22;;;23.20
63009;BMP280;49099;28.428;-16.488;2022-09-30T07:48:52;98668.44;;;23.28
63009;BMP280;49099;28.428;-16.488;2022-09-30T07:51:32;98674.75;;;23.36
63009;BMP280;49099;28.428;-16.488;2022-09-30T07:54:14;98683.25;;;23.40
63009;BMP280;49099;28.428;-16.488;2022-09-30T07:56:42;98681.06;;;23.44
63009;BMP280;49099;28.428;-16.488;2022-09-30T07:59:31;98691.28;;;23.40
63009;BMP280;49099;28.428;-16.488;2022-09-30T08:01:59;98684.47;;;23.39
63009;BMP280;49099;28.428;-16.488;2022-09-30T08:04:27;98683.25;;;23.40
63009;BMP280;49099;28.428;-16.488;2022-09-30T08:06:58;98687.41;;;23.41
63009;BMP280;49099;28.428;-16.488;2022-09-30T08:09:27;98697.38;;;23.46
63009;BMP280;49099;28.428;-16.488;2022-09-30T08:11:55;98695.16;;;23.50
63009;BMP280;49099;28.428;-16.488;2022-09-30T08:14:24;98698.56;;;23.56
63009;BMP280;49099;28.428;-16.488;2022-09-30T08:16:52;98707.09;;;23.60
63009;BMP280;49099;28.428;-16.488;2022-09-30T08:19:22;98712.19;;;23.63
63009;BMP280;49099;28.428;-16.488;2022-09-30T08:21:49;98712.47;;;23.60
63009;BMP280;49099;28.428;-16.488;2022-09-30T08:24:18;98721.22;;;23.55
63009;BMP280;49099;28.428;-16.488;2022-09-30T08:26:45;98726.34;;;23.53
63009;BMP280;49099;28.428;-16.488;2022-09-30T08:29:12;98723.19;;;23.54
63009;BMP280;49099;28.428;-16.488;2022-09-30T08:31:50;98720.00;;;23.56
63009;BMP280;49099;28.428;-16.488;2022-09-30T08:34:18;98722.38;;;23.65
63009;BMP280;49099;28.428;-16.488;2022-09-30T08:36:45;98718.47;;;23.71
63009;BMP280;49099;28.428;-16.488;2022-09-30T08:39:12;98721.88;;;23.77
63009;BMP280;49099;28.428;-16.488;2022-09-30T08:42:40;98712.56;;;23.84
63009;BMP280;49099;28.428;-16.488;2022-09-30T08:45:30;98722.31;;;23.87
63009;BMP280;49099;28.428;-16.488;2022-09-30T08:53:45;98719.56;;;23.98
63009;BMP280;49099;28.428;-16.488;2022-09-30T08:56:25;98725.59;;;24.04
63009;BMP280;49099;28.428;-16.488;2022-09-30T08:58:55;98724.59;;;24.07
63009;BMP280;49099;28.428;-16.488;2022-09-30T09:01:32;98711.44;;;24.09
63009;BMP280;49099;28.428;-16.488;2022-09-30T09:04:01;98717.03;;;24.11
63009;BMP280;49099;28.428;-16.488;2022-09-30T09:21:02;98761.06;;;23.91
63009;BMP280;49099;28.428;-16.488;2022-09-30T09:23:35;98762.53;;;23.87
63009;BMP280;49099;28.428;-16.488;2022-09-30T09:26:03;98761.84;;;23.81
63009;BMP280;49099;28.428;-16.488;2022-09-30T09:31:13;98769.88;;;23.81
63009;BMP280;49099;28.428;-16.488;2022-09-30T09:33:43;98769.88;;;23.81
63009;BMP280;49099;28.428;-16.488;2022-09-30T09:47:09;98759.81;;;23.98
63009;BMP280;49099;28.428;-16.488;2022-09-30T09:49:54;98753.44;;;24.01
63009;BMP280;49099;28.428;-16.488;2022-09-30T09:52:27;98763.13;;;24.09
63009;BMP280;49099;28.428;-16.488;2022-09-30T09:54:58;98763.06;;;24.20
63009;BMP280;49099;28.428;-16.488;2022-09-30T09:57:26;98759.13;;;24.27
63009;BMP280;49099;28.428;-16.488;2022-09-30T10:00:22;98757.16;;;24.33
63009;BMP280;49099;28.428;-16.488;2022-09-30T10:03:10;98774.91;;;24.41
63009;BMP280;49099;28.428;-16.488;2022-09-30T10:05:38;98783.41;;;24.45
63009;BMP280;49099;28.428;-16.488;2022-09-30T10:08:17;98787.28;;;24.50
63009;BMP280;49099;28.428;-16.488;2022-09-30T10:10:52;98783.81;;;24.55
63009;BMP280;49099;28.428;-16.488;2022-09-30T10:13:23;98786.31;;;24.53
63009;BMP280;49099;28.428;-16.488;2022-09-30T10:15:53;98792.63;;;24.55
63009;BMP280;49099;28.428;-16.488;2022-09-30T10:18:35;98789.94;;;24.55
63009;BMP280;49099;28.428;-16.488;2022-09-30T10:21:18;98801.75;;;24.47
63009;BMP280;49099;28.428;-16.488;2022-09-30T10:23:46;98803.47;;;24.39
63009;BMP280;49099;28.428;-16.488;2022-09-30T10:28:52;98806.59;;;24.48
63009;BMP280;49099;28.428;-16.488;2022-09-30T10:36:43;98817.91;;;24.71
63009;BMP280;49099;28.428;-16.488;2022-09-30T10:39:22;98816.84;;;24.79
63009;BMP280;49099;28.428;-16.488;2022-09-30T10:42:09;98809.97;;;24.84
63009;BMP280;49099;28.428;-16.488;2022-09-30T10:44:44;98804.09;;;24.85
63009;BMP280;49099;28.428;-16.488;2022-09-30T10:47:16;98809.44;;;24.91
63009;BMP280;49099;28.428;-16.488;2022-09-30T10:49:49;98805.22;;;24.95
63009;BMP280;49099;28.428;-16.488;2022-09-30T10:52:20;98801.28;;;25.02
63009;BMP280;49099;28.428;-16.488;2022-09-30T10:55:08;98800.47;;;25.07
63009;BMP280;49099;28.428;-16.488;2022-09-30T10:57:52;98795.78;;;25.13
63009;BMP280;49099;28.428;-16.488;2022-09-30T11:00:22;98796.97;;;25.17
63009;BMP280;49099;28.428;-16.488;2022-09-30T11:05:33;98809.03;;;25.05
63009;BMP280;49099;28.428;-16.488;2022-09-30T11:11:11;98807.44;;;24.97
63009;BMP280;49099;28.428;-16.488;2022-09-30T11:21:39;98808.97;;;25.40
63009;BMP280;49099;28.428;-16.488;2022-09-30T11:32:36;98802.75;;;25.69
63009;BMP280;49099;28.428;-16.488;2022-09-30T11:48:32;98805.25;;;25.62
63009;BMP280;49099;28.428;-16.488;2022-09-30T11:59:40;98813.56;;;25.16
63009;BMP280;49099;28.428;-16.488;2022-09-30T12:02:26;98812.72;;;25.08
63009;BMP280;49099;28.428;-16.488;2022-09-30T12:04:58;98810.03;;;25.02
63009;BMP280;49099;28.428;-16.488;2022-09-30T12:10:26;98816.72;;;24.96
63009;BMP280;49099;28.428;-16.488;2022-09-30T12:13:00;98815.72;;;24.99
63009;BMP280;49099;28.428;-16.488;2022-09-30T12:15:29;98804.47;;;25.00
63009;BMP280;49099;28.428;-16.488;2022-09-30T12:18:03;98806.34;;;25.11
63009;BMP280;49099;28.428;-16.488;2022-09-30T12:20:49;98812.91;;;25.15
63009;BMP280;49099;28.428;-16.488;2022-09-30T12:25:56;98788.53;;;25.02
63009;BMP280;49099;28.428;-16.488;2022-09-30T12:40:22;98792.47;;;24.42
63009;BMP280;49099;28.428;-16.488;2022-09-30T12:48:04;98794.34;;;24.53
63009;BMP280;49099;28.428;-16.488;2022-09-30T12:50:40;98786.66;;;24.68
63009;BMP280;49099;28.428;-16.488;2022-09-30T12:53:34;98783.09;;;24.84
63009;BMP280;49099;28.428;-16.488;2022-09-30T12:56:04;98775.44;;;24.93
63009;BMP280;49099;28.428;-16.488;2022-09-30T12:58:37;98780.47;;;25.02
63009;BMP280;49099;28.428;-16.488;2022-09-30T13:01:34;98774.94;;;25.19
63009;BMP280;49099;28.428;-16.488;2022-09-30T13:14:38;98744.47;;;25.72
63009;BMP280;49099;28.428;-16.488;2022-09-30T13:19:36;98730.66;;;26.00
63009;BMP280;49099;28.428;-16.488;2022-09-30T13:27:53;98724.81;;;26.14
63009;BMP280;49099;28.428;-16.488;2022-09-30T13:33:05;98723.81;;;25.98
63009;BMP280;49099;28.428;-16.488;2022-09-30T13:35:51;98728.91;;;26.02
63009;BMP280;49099;28.428;-16.488;2022-09-30T13:38:20;98734.66;;;25.93
63009;BMP280;49099;28.428;-16.488;2022-09-30T13:41:15;98729.22;;;25.80
63009;BMP280;49099;28.428;-16.488;2022-09-30T13:46:23;98737.22;;;25.67
63009;BMP280;49099;28.428;-16.488;2022-09-30T13:48:57;98734.75;;;25.69
63009;BMP280;49099;28.428;-16.488;2022-09-30T13:51:29;98727.34;;;25.75
63009;BMP280;49099;28.428;-16.488;2022-09-30T13:54:28;98721.81;;;25.86
63009;BMP280;49099;28.428;-16.488;2022-09-30T13:57:02;98721.66;;;25.97
63009;BMP280;49099;28.428;-16.488;2022-09-30T14:02:37;98722.44;;;25.92
63009;BMP280;49099;28.428;-16.488;2022-09-30T14:16:43;98707.69;;;25.80
63009;BMP280;49099;28.428;-16.488;2022-09-30T14:22:08;98690.53;;;25.46
63009;BMP280;49099;28.428;-16.488;2022-09-30T14:24:37;98690.69;;;25.35
63009;BMP280;49099;28.428;-16.488;2022-09-30T14:32:56;98704.00;;;24.79
63009;BMP280;49099;28.428;-16.488;2022-09-30T14:35:25;98700.34;;;24.53
63009;BMP280;49099;28.428;-16.488;2022-09-30T14:38:03;98689.84;;;24.25
63009;BMP280;49099;28.428;-16.488;2022-09-30T14:40:33;98684.97;;;24.24
63009;BMP280;49099;28.428;-16.488;2022-09-30T14:43:07;98684.34;;;24.42
63009;BMP280;49099;28.428;-16.488;2022-09-30T14:45:40;98679.31;;;24.57
63009;BMP280;49099;28.428;-16.488;2022-09-30T14:48:22;98671.38;;;24.70
63009;BMP280;49099;28.428;-16.488;2022-09-30T14:53:34;98664.88;;;24.84
63009;BMP280;49099;28.428;-16.488;2022-09-30T14:56:03;98668.16;;;24.95
63009;BMP280;49099;28.428;-16.488;2022-09-30T14:58:40;98673.06;;;24.97
63009;BMP280;49099;28.428;-16.488;2022-09-30T15:01:13;98666.22;;;24.96
63009;BMP280;49099;28.428;-16.488;2022-09-30T15:03:43;98662.41;;;24.86
63009;BMP280;49099;28.428;-16.488;2022-09-30T15:06:23;98661.19;;;24.87
63009;BMP280;49099;28.428;-16.488;2022-09-30T15:09:13;98663.66;;;24.85
63009;BMP280;49099;28.428;-16.488;2022-09-30T15:11:54;98674.19;;;24.83
63009;BMP280;49099;28.428;-16.488;2022-09-30T15:14:22;98667.47;;;24.71
63009;BMP280;49099;28.428;-16.488;2022-09-30T15:16:55;98665.72;;;24.73
63009;BMP280;49099;28.428;-16.488;2022-09-30T15:19:33;98662.09;;;24.71
63009;BMP280;49099;28.428;-16.488;2022-09-30T15:22:02;98677.38;;;24.81
63009;BMP280;49099;28.428;-16.488;2022-09-30T15:24:31;98667.78;;;24.86
63009;BMP280;49099;28.428;-16.488;2022-09-30T15:27:00;98673.59;;;24.71
63009;BMP280;49099;28.428;-16.488;2022-09-30T15:29:29;98672.59;;;24.69
63009;BMP280;49099;28.428;-16.488;2022-09-30T15:32:03;98673.97;;;24.81
63009;BMP280;49099;28.428;-16.488;2022-09-30T15:37:05;98675.63;;;24.84
63009;BMP280;49099;28.428;-16.488;2022-09-30T15:39:39;98676.94;;;24.77
63009;BMP280;49099;28.428;-16.488;2022-09-30T15:42:56;98681.91;;;24.68
63009;BMP280;49099;28.428;-16.488;2022-09-30T15:45:35;98682.69;;;24.63
63009;BMP280;49099;28.428;-16.488;2022-09-30T15:48:05;98680.47;;;24.61
63009;BMP280;49099;28.428;-16.488;2022-09-30T15:50:48;98675.97;;;24.75
63009;BMP280;49099;28.428;-16.488;2022-09-30T15:53:19;98669.69;;;24.91
63009;BMP280;49099;28.428;-16.488;2022-09-30T15:55:56;98667.69;;;24.97
63009;BMP280;49099;28.428;-16.488;2022-09-30T15:58:35;98665.94;;;24.99
63009;BMP280;49099;28.428;-16.488;2022-09-30T16:03:57;98657.81;;;25.05
63009;BMP280;49099;28.428;-16.488;2022-09-30T16:06:30;98656.38;;;25.04
63009;BMP280;49099;28.428;-16.488;2022-09-30T16:09:04;98652.28;;;24.97
63009;BMP280;49099;28.428;-16.488;2022-09-30T16:11:37;98657.94;;;24.94
63009;BMP280;49099;28.428;-16.488;2022-09-30T16:14:20;98666.06;;;24.88
63009;BMP280;49099;28.428;-16.488;2022-09-30T16:16:50;98663.22;;;24.81
63009;BMP280;49099;28.428;-16.488;2022-09-30T16:19:20;98667.47;;;24.71
63009;BMP280;49099;28.428;-16.488;2022-09-30T16:21:51;98667.78;;;24.67
63009;BMP280;49099;28.428;-16.488;2022-09-30T16:26:51;98674.06;;;24.70
63009;BMP280;49099;28.428;-16.488;2022-09-30T16:29:18;98682.91;;;24.65
63009;BMP280;49099;28.428;-16.488;2022-09-30T16:31:47;98680.66;;;24.69
63009;BMP280;49099;28.428;-16.488;2022-09-30T16:34:22;98684.69;;;24.57
63009;BMP280;49099;28.428;-16.488;2022-09-30T16:36:49;98681.75;;;24.31
63009;BMP280;49099;28.428;-16.488;2022-09-30T16:39:17;98679.41;;;24.16
63009;BMP280;49099;28.428;-16.488;2022-09-30T16:41:45;98672.34;;;24.19
63009;BMP280;49099;28.428;-16.488;2022-09-30T16:44:12;98674.94;;;24.24
63009;BMP280;49099;28.428;-16.488;2022-09-30T16:46:39;98672.66;;;24.34
63009;BMP280;49099;28.428;-16.488;2022-09-30T16:49:12;98671.47;;;24.35
63009;BMP280;49099;28.428;-16.488;2022-09-30T16:51:40;98674.16;;;24.35
63009;BMP280;49099;28.428;-16.488;2022-09-30T16:54:09;98671.00;;;24.31
63009;BMP280;49099;28.428;-16.488;2022-09-30T16:56:36;98668.59;;;24.27
63009;BMP280;49099;28.428;-16.488;2022-09-30T16:59:11;98670.81;;;24.23
63009;BMP280;49099;28.428;-16.488;2022-09-30T17:01:39;98676.44;;;24.20
63009;BMP280;49099;28.428;-16.488;2022-09-30T17:04:07;98671.88;;;24.15
63009;BMP280;49099;28.428;-16.488;2022-09-30T17:06:39;98664.75;;;24.17
63009;BMP280;49099;28.428;-16.488;2022-09-30T17:09:06;98667.97;;;24.16
63009;BMP280;49099;28.428;-16.488;2022-09-30T17:11:35;98667.72;;;24.14
63009;BMP280;49099;28.428;-16.488;2022-09-30T17:14:03;98655.44;;;24.24
63009;BMP280;49099;28.428;-16.488;2022-09-30T17:16:31;98650.72;;;24.35
63009;BMP280;49099;28.428;-16.488;2022-09-30T17:18:59;98650.63;;;24.41
63009;BMP280;49099;28.428;-16.488;2022-09-30T17:21:26;98648.19;;;24.43
63009;BMP280;49099;28.428;-16.488;2022-09-30T17:23:54;98649.69;;;24.44
63009;BMP280;49099;28.428;-16.488;2022-09-30T17:26:21;98649.22;;;24.40
63009;BMP280;49099;28.428;-16.488;2022-09-30T17:28:48;98643.84;;;24.40
63009;BMP280;49099;28.428;-16.488;2022-09-30T17:31:15;98653.34;;;24.41
63009;BMP280;49099;28.428;-16.488;2022-09-30T17:33:43;98639.91;;;24.41
63009;BMP280;49099;28.428;-16.488;2022-09-30T17:36:11;98640.63;;;24.41
63009;BMP280;49099;28.428;-16.488;2022-09-30T17:38:38;98639.91;;;24.41
63009;BMP280;49099;28.428;-16.488;2022-09-30T17:41:06;98640.91;;;24.38
63009;BMP280;49099;28.428;-16.488;2022-09-30T17:44:14;98632.19;;;24.32
63009;BMP280;49099;28.428;-16.488;2022-09-30T17:46:43;98644.41;;;24.33
63009;BMP280;49099;28.428;-16.488;2022-09-30T17:49:11;98644.41;;;24.33
63009;BMP280;49099;28.428;-16.488;2022-09-30T17:51:39;98642.72;;;24.30